createdAt,value
2019-02-24T00:01:28.830Z,39.57
2019-02-24T00:03:57.228Z,38.43
2019-02-24T00:06:25.617Z,33.40
2019-02-24T00:08:54.374Z,35.27
2019-02-24T00:11:22.698Z,36.20
2019-02-24T00:13:51.262Z,33.00
2019-02-24T00:16:19.672Z,41.23
2019-02-24T00:18:47.966Z,37.90
2019-02-24T00:21:16.288Z,30.63
2019-02-24T00:23:44.724Z,37.70
2019-02-24T00:26:13.037Z,36.53
2019-02-24T00:28:41.498Z,44.63
2019-02-24T00:31:10.223Z,43.73
2019-02-24T00:33:38.590Z,47.03
2019-02-24T00:36:06.981Z,44.60
2019-02-24T00:38:35.407Z,45.73
2019-02-24T00:41:03.737Z,43.07
2019-02-24T00:43:32.237Z,40.00
2019-02-24T00:46:00.694Z,57.27
2019-02-24T00:48:29.094Z,45.63
2019-02-24T00:50:57.441Z,46.70
2019-02-24T00:53:25.850Z,46.70
2019-02-24T00:55:54.302Z,46.03
2019-02-24T00:58:22.667Z,53.97
2019-02-24T01:00:51.089Z,42.57
2019-02-24T01:03:19.442Z,44.53
2019-02-24T01:05:47.788Z,47.53
2019-02-24T01:08:16.679Z,48.23
2019-02-24T01:10:45.034Z,48.00
2019-02-24T01:13:13.340Z,46.73
2019-02-24T01:15:41.799Z,56.37
2019-02-24T01:18:10.103Z,47.20
2019-02-24T01:20:38.416Z,55.87
2019-02-24T01:23:07.013Z,63.50
2019-02-24T01:25:35.374Z,53.93
2019-02-24T01:28:03.715Z,59.83
2019-02-24T01:30:32.380Z,62.33
2019-02-24T01:33:00.779Z,63.93
2019-02-24T01:35:29.083Z,54.33
2019-02-24T01:37:57.810Z,59.10
2019-02-24T01:40:26.127Z,53.60
2019-02-24T01:42:54.434Z,58.67
2019-02-24T01:45:23.052Z,56.47
2019-02-24T01:47:51.403Z,54.07
2019-02-24T01:50:19.706Z,55.83
2019-02-24T01:52:48.221Z,60.17
2019-02-24T01:55:16.627Z,59.00
2019-02-24T01:57:44.916Z,57.50
2019-02-24T02:00:13.380Z,56.60
2019-02-24T02:02:41.831Z,54.27
2019-02-24T02:05:10.146Z,57.87
2019-02-24T02:07:38.969Z,50.03
2019-02-24T02:10:07.339Z,56.50
2019-02-24T02:12:35.773Z,55.53
2019-02-24T02:15:04.277Z,66.67
2019-02-24T02:17:32.645Z,56.60
2019-02-24T02:20:01.017Z,58.87
2019-02-24T02:22:29.621Z,57.43
2019-02-24T02:24:57.954Z,47.13
2019-02-24T02:27:26.280Z,49.73
2019-02-24T02:29:54.792Z,54.33
2019-02-24T02:32:23.112Z,49.27
2019-02-24T02:34:51.418Z,49.27
2019-02-24T02:37:20.244Z,55.83
2019-02-24T02:39:48.652Z,55.57
2019-02-24T02:42:17.040Z,47.93
2019-02-24T02:44:46.012Z,52.63
2019-02-24T02:47:14.316Z,53.20
2019-02-24T02:49:42.726Z,52.97
2019-02-24T02:52:11.436Z,39.87
2019-02-24T02:54:39.788Z,51.47
2019-02-24T02:57:08.181Z,65.93
2019-02-24T02:59:36.701Z,59.27
2019-02-24T03:02:05.016Z,70.80
2019-02-24T03:04:33.397Z,65.03
2019-02-24T03:07:06.082Z,52.57
2019-02-24T03:09:34.454Z,56.50
2019-02-24T03:12:02.765Z,56.80
2019-02-24T03:14:31.296Z,57.23
2019-02-24T03:16:59.666Z,54.83
2019-02-24T03:19:27.987Z,56.73
2019-02-24T03:21:56.734Z,55.93
2019-02-24T03:24:25.105Z,57.07
2019-02-24T03:26:53.520Z,62.57
2019-02-24T03:29:22.326Z,57.27
2019-02-24T03:31:50.699Z,51.47
2019-02-24T03:34:18.981Z,65.67
2019-02-24T03:36:47.608Z,64.63
2019-02-24T03:39:15.936Z,59.07
2019-02-24T03:41:44.312Z,57.33
2019-02-24T03:44:13.196Z,45.73
2019-02-24T03:46:41.575Z,55.03
2019-02-24T03:49:09.916Z,61.90
2019-02-24T03:51:38.510Z,55.83
2019-02-24T03:54:06.833Z,57.03
2019-02-24T03:56:35.228Z,55.10
2019-02-24T03:59:14.450Z,55.07
2019-02-24T04:01:32.576Z,50.93
2019-02-24T04:04:00.984Z,63.10
2019-02-24T04:06:29.826Z,52.30
2019-02-24T04:08:58.157Z,53.87
2019-02-24T04:11:26.536Z,64.50
2019-02-24T04:13:55.123Z,59.40
2019-02-24T04:16:23.468Z,66.60
2019-02-24T04:18:51.845Z,57.67
2019-02-24T04:21:20.396Z,57.73
2019-02-24T04:23:48.724Z,59.87
2019-02-24T04:26:17.018Z,61.47
2019-02-24T04:28:45.528Z,52.07
2019-02-24T04:31:13.860Z,54.97
2019-02-24T04:33:42.274Z,54.53
2019-02-24T04:36:10.753Z,53.63
2019-02-24T04:38:39.288Z,63.80
2019-02-24T04:41:07.601Z,55.20
2019-02-24T04:43:36.105Z,64.87
2019-02-24T04:46:04.426Z,55.03
2019-02-24T04:48:32.807Z,59.30
2019-02-24T04:51:01.531Z,60.47
2019-02-24T04:53:29.839Z,57.27
2019-02-24T04:55:58.114Z,57.90
2019-02-24T04:58:26.506Z,59.03
2019-02-24T05:00:54.812Z,57.47
2019-02-24T05:03:23.209Z,60.77
2019-02-24T05:05:52.114Z,56.80
2019-02-24T05:08:20.405Z,59.53
2019-02-24T05:10:48.787Z,69.97
2019-02-24T05:13:17.557Z,58.63
2019-02-24T05:15:45.854Z,66.30
2019-02-24T05:18:14.311Z,60.40
2019-02-24T05:20:43.017Z,60.30
2019-02-24T05:23:11.383Z,74.67
2019-02-24T05:25:39.730Z,56.93
2019-02-24T05:28:08.114Z,62.17
2019-02-24T05:30:36.504Z,67.97
2019-02-24T05:33:04.859Z,64.00
2019-02-24T05:35:33.443Z,78.67
2019-02-24T05:38:01.760Z,74.10
2019-02-24T05:40:30.051Z,71.90
2019-02-24T05:42:58.537Z,71.10
2019-02-24T05:45:26.870Z,56.17
2019-02-24T05:47:55.197Z,72.97
2019-02-24T05:50:24.141Z,69.80
2019-02-24T05:52:52.466Z,68.00
2019-02-24T05:55:20.821Z,75.30
2019-02-24T05:57:49.578Z,71.13
2019-02-24T06:00:17.979Z,78.70
2019-02-24T06:02:46.393Z,71.90
2019-02-24T06:05:14.808Z,61.73
2019-02-24T06:07:43.137Z,60.37
2019-02-24T06:10:11.454Z,63.70
2019-02-24T06:12:39.854Z,64.73
2019-02-24T06:15:08.289Z,63.87
2019-02-24T06:17:36.652Z,66.67
2019-02-24T06:20:05.158Z,66.57
2019-02-24T06:22:33.537Z,69.80
2019-02-24T06:25:01.877Z,79.97
2019-02-24T06:27:30.593Z,72.43
2019-02-24T06:30:05.026Z,55.20
2019-02-24T06:32:27.333Z,78.30
2019-02-24T06:34:56.135Z,61.70
2019-02-24T06:37:24.493Z,62.23
2019-02-24T06:39:52.866Z,76.33
2019-02-24T06:42:21.609Z,67.97
2019-02-24T06:44:49.969Z,73.73
2019-02-24T06:47:18.337Z,85.53
2019-02-24T06:49:46.898Z,79.07
2019-02-24T06:52:15.199Z,73.87
2019-02-24T06:54:43.487Z,78.13
2019-02-24T06:57:11.995Z,71.97
2019-02-24T06:59:40.518Z,78.10
2019-02-24T07:02:08.880Z,76.57
2019-02-24T07:04:37.618Z,74.00
2019-02-24T07:07:05.915Z,82.77
2019-02-24T07:09:34.231Z,91.53
2019-02-24T07:12:02.822Z,85.47
2019-02-24T07:14:31.143Z,92.13
2019-02-24T07:16:59.425Z,73.53
2019-02-24T07:19:28.042Z,84.77
2019-02-24T07:21:56.372Z,77.93
2019-02-24T07:24:24.747Z,82.00
2019-02-24T07:26:53.155Z,72.47
2019-02-24T07:29:21.468Z,85.13
2019-02-24T07:31:49.805Z,86.03
2019-02-24T07:34:18.458Z,79.00
2019-02-24T07:36:46.744Z,81.53
2019-02-24T07:39:15.141Z,82.93
2019-02-24T07:41:43.755Z,74.60
2019-02-24T07:44:12.112Z,78.27
2019-02-24T07:46:40.403Z,82.13
2019-02-24T07:49:08.836Z,75.97
2019-02-24T07:51:37.146Z,83.53
2019-02-24T07:54:05.462Z,78.67
2019-02-24T07:56:33.935Z,88.73
2019-02-24T07:59:02.310Z,80.10
2019-02-24T08:01:30.729Z,78.03
2019-02-24T08:03:59.236Z,73.80
2019-02-24T08:06:27.953Z,70.40
2019-02-24T08:08:56.274Z,77.20
2019-02-24T08:11:24.775Z,76.23
2019-02-24T08:13:53.394Z,70.13
2019-02-24T08:16:21.760Z,77.57
2019-02-24T08:18:51.988Z,71.57
2019-02-24T08:21:18.756Z,61.77
2019-02-24T08:23:47.119Z,65.00
2019-02-24T08:26:15.765Z,64.60
2019-02-24T08:28:44.311Z,67.20
2019-02-24T08:31:12.701Z,67.60
2019-02-24T08:33:41.125Z,57.47
2019-02-24T08:36:09.599Z,56.43
2019-02-24T08:38:37.953Z,48.17
2019-02-24T08:41:06.469Z,55.50
2019-02-24T08:43:34.800Z,48.53
2019-02-24T08:46:03.379Z,51.80
2019-02-24T08:48:32.241Z,52.43
2019-02-24T08:51:00.604Z,56.90
2019-02-24T08:53:29.004Z,48.60
2019-02-24T08:55:57.881Z,48.17
2019-02-24T08:58:26.302Z,50.37
2019-02-24T09:00:54.658Z,47.40
2019-02-24T09:03:23.168Z,41.00
2019-02-24T09:05:51.467Z,38.30
2019-02-24T09:08:19.893Z,38.60
2019-02-24T09:10:48.713Z,39.83
2019-02-24T09:13:16.996Z,41.13
2019-02-24T09:15:45.331Z,38.57
2019-02-24T09:18:14.003Z,33.70
2019-02-24T09:20:42.364Z,29.63
2019-02-24T09:23:10.804Z,31.63
2019-02-24T09:25:39.749Z,32.67
2019-02-24T09:28:08.123Z,33.27
2019-02-24T09:30:36.499Z,32.67
2019-02-24T09:33:05.013Z,36.10
2019-02-24T09:35:33.323Z,32.93
2019-02-24T09:38:01.754Z,30.40
2019-02-24T09:40:30.486Z,30.33
2019-02-24T09:42:58.854Z,34.13
2019-02-24T09:45:27.313Z,42.33
2019-02-24T09:47:55.957Z,33.30
2019-02-24T09:50:24.391Z,35.53
2019-02-24T09:52:52.768Z,37.70
2019-02-24T09:55:21.315Z,38.63
2019-02-24T09:57:49.628Z,36.60
2019-02-24T10:00:18.052Z,30.80
2019-02-24T10:02:46.476Z,36.20
2019-02-24T10:05:14.815Z,36.10
2019-02-24T10:07:43.112Z,35.50
2019-02-24T10:10:11.629Z,36.70
2019-02-24T10:12:40.522Z,31.63
2019-02-24T10:15:08.985Z,36.90
2019-02-24T10:17:37.692Z,34.00
2019-02-24T10:20:06.698Z,31.93
2019-02-24T10:22:35.055Z,27.43
2019-02-24T10:25:05.866Z,32.90
2019-02-24T10:27:32.258Z,27.77
2019-02-24T10:30:00.619Z,32.13
2019-02-24T10:32:29.156Z,27.63
2019-02-24T10:34:57.566Z,27.50
2019-02-24T10:37:26.010Z,33.90
2019-02-24T10:39:54.494Z,33.13
2019-02-24T10:42:22.873Z,34.53
2019-02-24T10:44:51.236Z,32.20
2019-02-24T10:47:19.703Z,29.97
2019-02-24T10:49:48.009Z,28.60
2019-02-24T10:52:16.395Z,27.23
2019-02-24T10:54:45.186Z,24.47
2019-02-24T10:57:13.713Z,21.13
2019-02-24T10:59:42.143Z,23.40
2019-02-24T11:02:10.469Z,22.27
2019-02-24T11:04:38.953Z,23.20
2019-02-24T11:07:07.531Z,19.27
2019-02-24T11:09:35.868Z,21.53
2019-02-24T11:12:04.589Z,25.83
2019-02-24T11:14:33.276Z,21.80
2019-02-24T11:17:01.610Z,27.20
2019-02-24T11:19:30.340Z,21.77
2019-02-24T11:21:59.012Z,28.27
2019-02-24T11:24:27.653Z,20.83
2019-02-24T11:26:56.395Z,20.10
2019-02-24T11:29:24.818Z,21.47
2019-02-24T11:31:53.128Z,22.27
2019-02-24T11:34:21.812Z,20.07
2019-02-24T11:36:50.139Z,19.37
2019-02-24T11:39:18.587Z,19.47
2019-02-24T11:41:47.262Z,17.10
2019-02-24T11:44:15.635Z,20.57
2019-02-24T11:46:44.020Z,17.40
2019-02-24T11:49:12.555Z,18.20
2019-02-24T11:51:40.869Z,19.87
2019-02-24T11:54:09.276Z,19.50
2019-02-24T11:56:37.775Z,23.73
2019-02-24T11:59:06.163Z,16.47
2019-02-24T12:01:34.518Z,24.23
2019-02-24T12:04:02.975Z,16.13
2019-02-24T12:06:31.295Z,20.37
2019-02-24T12:09:05.255Z,18.90
2019-02-24T12:11:28.418Z,15.47
2019-02-24T12:13:56.772Z,16.90
2019-02-24T12:16:25.087Z,18.33
2019-02-24T12:18:53.856Z,17.83
2019-02-24T12:21:22.219Z,16.23
2019-02-24T12:23:50.580Z,15.63
2019-02-24T12:26:19.066Z,12.53
2019-02-24T12:28:47.421Z,13.07
2019-02-24T12:31:15.817Z,13.00
2019-02-24T12:33:44.587Z,15.60
2019-02-24T12:36:12.954Z,16.47
2019-02-24T12:38:41.308Z,16.23
2019-02-24T12:41:10.034Z,13.20
2019-02-24T12:43:38.530Z,15.90
2019-02-24T12:46:06.879Z,14.73
2019-02-24T12:48:35.644Z,15.50
2019-02-24T12:51:03.988Z,17.97
2019-02-24T12:53:32.344Z,17.57
2019-02-24T12:56:00.798Z,12.93
2019-02-24T12:58:29.145Z,15.23
2019-02-24T13:00:57.528Z,14.93
2019-02-24T13:03:25.955Z,15.60
2019-02-24T13:05:54.248Z,15.00
2019-02-24T13:08:22.670Z,14.40
2019-02-24T13:10:51.126Z,11.77
2019-02-24T13:13:19.680Z,16.97
2019-02-24T13:15:47.991Z,16.47
2019-02-24T13:18:16.637Z,10.60
2019-02-24T13:20:44.954Z,16.90
2019-02-24T13:23:13.518Z,13.73
2019-02-24T13:25:42.071Z,14.07
2019-02-24T13:28:10.394Z,9.57
2019-02-24T13:30:38.684Z,16.23
2019-02-24T13:33:07.623Z,12.53
2019-02-24T13:35:36.021Z,12.00
2019-02-24T13:38:04.362Z,12.83
2019-02-24T13:40:32.856Z,8.70
2019-02-24T13:43:01.141Z,15.30
2019-02-24T13:45:29.439Z,13.53
2019-02-24T13:47:57.860Z,11.80
2019-02-24T13:50:26.179Z,9.60
2019-02-24T13:52:54.497Z,14.37
2019-02-24T13:55:23.358Z,11.03
2019-02-24T13:57:51.991Z,9.53
2019-02-24T14:00:20.356Z,11.43
2019-02-24T14:02:48.952Z,11.90
2019-02-24T14:05:17.330Z,11.83
2019-02-24T14:07:45.670Z,18.63
2019-02-24T14:10:14.397Z,12.27
2019-02-24T14:12:42.906Z,9.20
2019-02-24T14:15:11.346Z,8.90
2019-02-24T14:17:39.802Z,12.97
2019-02-24T14:20:09.331Z,12.73
2019-02-24T14:22:37.693Z,9.23
2019-02-24T14:25:06.807Z,8.87
2019-02-24T14:27:35.333Z,9.93
2019-02-24T14:30:04.304Z,13.40
2019-02-24T14:32:33.289Z,15.33
2019-02-24T14:35:01.339Z,8.20
2019-02-24T14:37:29.762Z,9.90
2019-02-24T14:39:58.210Z,8.43
2019-02-24T14:42:26.574Z,7.70
2019-02-24T14:44:54.961Z,10.33
2019-02-24T14:47:23.383Z,6.60
2019-02-24T14:49:51.731Z,9.93
2019-02-24T14:52:20.070Z,7.27
2019-02-24T14:54:48.577Z,7.73
2019-02-24T14:57:17.035Z,10.33
2019-02-24T14:59:45.412Z,13.03
2019-02-24T15:02:14.044Z,9.37
2019-02-24T15:04:42.374Z,11.77
2019-02-24T15:07:10.685Z,10.07
2019-02-24T15:09:39.185Z,10.77
2019-02-24T15:12:07.526Z,6.83
2019-02-24T15:14:35.901Z,13.43
2019-02-24T15:17:04.588Z,9.43
2019-02-24T15:19:33.012Z,10.23
2019-02-24T15:22:01.364Z,11.40
2019-02-24T15:24:30.034Z,13.43
2019-02-24T15:26:58.404Z,6.17
2019-02-24T15:29:26.915Z,7.07
2019-02-24T15:31:55.329Z,10.67
2019-02-24T15:34:23.977Z,11.07
2019-02-24T15:36:52.291Z,6.53
2019-02-24T15:39:20.889Z,14.10
2019-02-24T15:41:49.228Z,8.90
2019-02-24T15:44:17.702Z,10.87
2019-02-24T15:46:46.344Z,7.40
2019-02-24T15:49:14.670Z,13.30
2019-02-24T15:51:43.034Z,10.50
2019-02-24T15:54:11.535Z,11.83
2019-02-24T15:56:39.883Z,8.37
2019-02-24T15:59:08.219Z,10.00
2019-02-24T16:01:37.993Z,12.10
2019-02-24T16:04:06.366Z,10.77
2019-02-24T16:06:37.244Z,8.80
2019-02-24T16:09:03.328Z,8.40
2019-02-24T16:11:31.629Z,10.60
2019-02-24T16:14:00.088Z,12.53
2019-02-24T16:16:28.530Z,10.50
2019-02-24T16:18:56.895Z,11.77
2019-02-24T16:21:25.237Z,9.73
2019-02-24T16:23:53.847Z,12.23
2019-02-24T16:26:22.160Z,11.53
2019-02-24T16:28:50.729Z,8.37
2019-02-24T16:31:19.174Z,13.53
2019-02-24T16:33:47.531Z,11.47
2019-02-24T16:36:15.995Z,9.83
2019-02-24T16:38:44.624Z,14.10
2019-02-24T16:41:13.250Z,13.77
2019-02-24T16:43:41.656Z,13.70
2019-02-24T16:46:10.137Z,13.53
2019-02-24T16:48:38.446Z,10.43
2019-02-24T16:51:06.869Z,11.17
2019-02-24T16:53:35.266Z,11.73
2019-02-24T16:56:03.783Z,12.33
2019-02-24T16:58:32.243Z,12.30
2019-02-24T17:01:01.040Z,15.07
2019-02-24T17:03:29.411Z,13.13
2019-02-24T17:05:57.778Z,10.93
2019-02-24T17:08:26.595Z,9.03
2019-02-24T17:10:54.988Z,10.57
2019-02-24T17:13:23.333Z,13.83
2019-02-24T17:15:52.070Z,17.13
2019-02-24T17:18:20.413Z,12.23
2019-02-24T17:20:48.707Z,7.80
2019-02-24T17:23:17.200Z,11.27
2019-02-24T17:25:45.591Z,10.40
2019-02-24T17:28:13.979Z,11.80
2019-02-24T17:30:42.500Z,14.33
2019-02-24T17:33:10.900Z,10.43
2019-02-24T17:35:39.221Z,12.20
2019-02-24T17:38:08.098Z,9.93
2019-02-24T17:40:36.437Z,9.97
2019-02-24T17:43:04.787Z,10.37
2019-02-24T17:45:33.141Z,9.13
2019-02-24T17:48:01.500Z,13.63
2019-02-24T17:50:29.967Z,12.87
2019-02-24T17:52:58.521Z,11.20
2019-02-24T17:55:26.927Z,10.40
2019-02-24T17:57:55.314Z,11.83
2019-02-24T18:00:27.350Z,11.03
2019-02-24T18:02:55.737Z,10.07
2019-02-24T18:05:24.058Z,15.87
2019-02-24T18:07:52.601Z,12.23
2019-02-24T18:10:21.021Z,17.37
2019-02-24T18:12:49.400Z,11.83
2019-02-24T18:15:18.302Z,11.37
2019-02-24T18:17:46.674Z,11.27
2019-02-24T18:20:15.049Z,11.30
2019-02-24T18:22:43.535Z,17.37
2019-02-24T18:25:12.115Z,12.80
2019-02-24T18:27:40.512Z,12.20
2019-02-24T18:30:12.306Z,13.87
2019-02-24T18:32:41.262Z,19.13
2019-02-24T18:35:09.654Z,17.73
2019-02-24T18:37:38.143Z,11.07
2019-02-24T18:40:07.169Z,12.50
2019-02-24T18:42:35.467Z,13.33
2019-02-24T18:45:04.211Z,12.83
2019-02-24T18:47:32.710Z,16.30
2019-02-24T18:50:01.169Z,10.10
2019-02-24T18:52:29.852Z,12.43
2019-02-24T18:54:58.234Z,19.97
2019-02-24T18:57:26.584Z,12.47
2019-02-24T18:59:55.352Z,16.67
2019-02-24T19:02:24.280Z,11.47
2019-02-24T19:04:52.777Z,14.77
2019-02-24T19:07:21.346Z,17.77
2019-02-24T19:09:49.778Z,10.77
2019-02-24T19:12:18.411Z,14.53
2019-02-24T19:14:47.103Z,14.30
2019-02-24T19:17:15.470Z,12.80
2019-02-24T19:19:43.877Z,11.97
2019-02-24T19:22:12.691Z,15.53
2019-02-24T19:24:41.226Z,14.90
2019-02-24T19:27:09.777Z,11.03
2019-02-24T19:29:38.191Z,12.83
2019-02-24T19:32:06.488Z,11.20
2019-02-24T19:34:34.846Z,13.37
2019-02-24T19:37:03.288Z,15.43
2019-02-24T19:39:31.704Z,13.03
2019-02-24T19:42:00.182Z,10.37
2019-02-24T19:44:28.603Z,10.33
2019-02-24T19:46:57.204Z,12.20
2019-02-24T19:49:25.552Z,12.23
2019-02-24T19:51:54.149Z,12.30
2019-02-24T19:54:22.444Z,11.60
2019-02-24T19:56:50.760Z,11.30
2019-02-24T19:59:19.427Z,9.53
2019-02-24T20:01:47.751Z,9.10
2019-02-24T20:04:16.443Z,11.93
2019-02-24T20:06:44.744Z,7.73
2019-02-24T20:09:13.151Z,9.80
2019-02-24T20:11:41.467Z,13.20
2019-02-24T20:14:09.998Z,11.90
2019-02-24T20:16:38.351Z,11.60
2019-02-24T20:19:06.684Z,13.57
2019-02-24T20:21:35.081Z,14.60
2019-02-24T20:24:03.486Z,11.27
2019-02-24T20:26:31.817Z,11.17
2019-02-24T20:29:00.265Z,12.27
2019-02-24T20:31:28.755Z,8.07
2019-02-24T20:33:57.051Z,8.90
2019-02-24T20:36:26.011Z,8.87
2019-02-24T20:38:54.434Z,16.47
2019-02-24T20:41:23.012Z,12.30
2019-02-24T20:43:51.486Z,10.13
2019-02-24T20:46:19.915Z,12.17
2019-02-24T20:48:48.264Z,10.17
2019-02-24T20:51:17.041Z,9.80
2019-02-24T20:53:45.478Z,11.10
2019-02-24T20:56:13.909Z,14.87
2019-02-24T20:58:42.800Z,9.87
2019-02-24T21:01:11.794Z,13.23
2019-02-24T21:03:40.170Z,13.33
2019-02-24T21:06:08.606Z,9.87
2019-02-24T21:08:37.032Z,11.60
2019-02-24T21:11:05.406Z,8.23
2019-02-24T21:13:33.846Z,14.07
2019-02-24T21:16:02.437Z,14.87
2019-02-24T21:18:30.757Z,14.00
2019-02-24T21:20:59.265Z,13.70
2019-02-24T21:23:27.628Z,9.17
2019-02-24T21:25:56.221Z,12.53
2019-02-24T21:28:24.906Z,14.37
2019-02-24T21:30:53.391Z,17.63
2019-02-24T21:33:21.733Z,10.47
2019-02-24T21:35:50.248Z,9.00
2019-02-24T21:38:18.575Z,10.43
2019-02-24T21:40:47.412Z,7.37
2019-02-24T21:43:16.079Z,8.83
2019-02-24T21:45:44.398Z,15.87
2019-02-24T21:48:12.761Z,7.40
2019-02-24T21:50:41.197Z,6.20
2019-02-24T21:53:09.538Z,9.50
2019-02-24T21:55:37.922Z,7.43
2019-02-24T21:58:06.941Z,8.73
2019-02-24T22:00:35.402Z,8.27
2019-02-24T22:03:03.883Z,7.50
2019-02-24T22:05:32.686Z,10.00
2019-02-24T22:08:01.014Z,6.33
2019-02-24T22:10:29.404Z,8.10
2019-02-24T22:12:59.396Z,8.23
2019-02-24T22:15:26.375Z,6.43
2019-02-24T22:17:54.746Z,9.57
2019-02-24T22:20:23.346Z,6.10
2019-02-24T22:22:51.716Z,7.20
2019-02-24T22:25:20.075Z,7.50
2019-02-24T22:27:48.600Z,8.03
2019-02-24T22:30:17.108Z,5.87
2019-02-24T22:32:45.550Z,8.57
2019-02-24T22:35:14.012Z,7.93
2019-02-24T22:37:42.662Z,6.97
2019-02-24T22:40:11.466Z,7.90
2019-02-24T22:42:40.203Z,4.73
2019-02-24T22:45:10.690Z,8.10
2019-02-24T22:47:39.055Z,6.40
2019-02-24T22:50:08.272Z,8.90
2019-02-24T22:52:36.663Z,11.63
2019-02-24T22:55:05.572Z,6.67
2019-02-24T22:57:34.107Z,9.33
2019-02-24T23:00:02.521Z,10.93
2019-02-24T23:02:31.039Z,10.90
2019-02-24T23:05:00.034Z,14.10
2019-02-24T23:07:28.376Z,12.40
2019-02-24T23:09:56.715Z,6.87
2019-02-24T23:12:25.308Z,12.13
2019-02-24T23:14:53.726Z,14.77
2019-02-24T23:17:22.021Z,9.20
2019-02-24T23:19:50.786Z,13.17
2019-02-24T23:22:19.087Z,9.60
2019-02-24T23:24:47.422Z,12.73
2019-02-24T23:27:16.046Z,18.50
2019-02-24T23:29:44.420Z,12.33
2019-02-24T23:32:12.843Z,8.40
2019-02-24T23:34:41.321Z,10.40
2019-02-24T23:37:09.687Z,9.23
2019-02-24T23:39:38.211Z,15.03
2019-02-24T23:42:06.638Z,13.33
2019-02-24T23:44:34.996Z,13.27
2019-02-24T23:47:03.343Z,10.53
2019-02-24T23:49:32.221Z,11.77
2019-02-24T23:52:00.760Z,14.43
2019-02-24T23:54:29.062Z,8.77
2019-02-24T23:56:57.974Z,9.00
2019-02-24T23:59:26.457Z,13.60
